createdAt,value
2023-01-19T00:02:07.146Z,4.57
2023-01-19T00:04:38.663Z,4.13
2023-01-19T00:07:10.050Z,4.65
2023-01-19T00:14:42.566Z,4.88
2023-01-19T00:17:13.699Z,4.55
2023-01-19T00:19:45.039Z,3.55
2023-01-19T00:27:17.884Z,8.30
2023-01-19T00:29:49.175Z,3.63
2023-01-19T00:32:21.743Z,5.68
2023-01-19T00:34:53.817Z,4.47
2023-01-19T00:37:24.873Z,3.45
2023-01-19T00:39:55.729Z,4.07
2023-01-19T00:45:23.652Z,3.97
2023-01-19T00:47:58.569Z,4.38
2023-01-19T00:50:31.339Z,5.10
2023-01-19T00:53:03.212Z,3.42
2023-01-19T00:55:37.444Z,4.03
2023-01-19T00:58:08.731Z,4.78
2023-01-19T01:00:40.314Z,3.30
2023-01-19T01:03:12.701Z,4.28
2023-01-19T01:05:44.767Z,3.60
2023-01-19T01:10:46.417Z,3.55
2023-01-19T01:15:53.811Z,7.20
2023-01-19T01:18:26.258Z,6.38
2023-01-19T01:21:07.665Z,7.25
2023-01-19T01:23:39.012Z,5.75
2023-01-19T01:26:10.367Z,6.45
2023-01-19T01:28:41.565Z,5.35
2023-01-19T01:33:43.065Z,6.00
2023-01-19T01:36:14.617Z,5.53
2023-01-19T01:38:45.680Z,5.63
2023-01-19T01:41:17.110Z,6.10
2023-01-19T01:43:59.655Z,3.90
2023-01-19T01:46:32.611Z,6.10
2023-01-19T01:49:10.093Z,6.50
2023-01-19T01:51:53.363Z,6.00
2023-01-19T01:54:29.111Z,5.57
2023-01-19T01:57:05.836Z,5.93
2023-01-19T01:59:42.590Z,6.03
2023-01-19T02:02:55.874Z,7.28
2023-01-19T02:05:31.289Z,4.38
2023-01-19T02:08:38.384Z,6.55
2023-01-19T02:11:27.523Z,6.20
2023-01-19T02:13:58.931Z,4.03
2023-01-19T02:16:31.500Z,6.13
2023-01-19T02:19:02.633Z,5.78
2023-01-19T02:24:04.544Z,4.90
2023-01-19T02:26:46.760Z,4.97
2023-01-19T02:29:21.156Z,5.60
2023-01-19T02:31:52.357Z,5.05
2023-01-19T02:34:24.326Z,5.50
2023-01-19T02:37:25.625Z,4.70
2023-01-19T02:39:59.831Z,5.70
2023-01-19T02:42:34.718Z,6.47
2023-01-19T02:45:08.436Z,4.85
2023-01-19T02:47:53.333Z,5.28
2023-01-19T02:50:51.271Z,5.13
2023-01-19T02:53:34.612Z,5.50
2023-01-19T02:56:38.727Z,4.43
2023-01-19T02:59:21.607Z,6.18
2023-01-19T03:01:52.560Z,5.30
2023-01-19T03:04:38.467Z,6.35
2023-01-19T03:07:31.764Z,7.47
2023-01-19T03:10:13.597Z,4.78
2023-01-19T03:12:54.696Z,6.22
2023-01-19T03:15:51.134Z,5.85
2023-01-19T03:18:25.859Z,7.40
2023-01-19T03:20:59.951Z,6.03
2023-01-19T03:23:33.578Z,6.07
2023-01-19T03:26:06.677Z,7.43
2023-01-19T03:28:38.419Z,5.18
2023-01-19T03:31:22.562Z,9.00
2023-01-19T03:34:02.431Z,5.45
2023-01-19T03:36:39.387Z,6.18
2023-01-19T03:39:11.869Z,5.65
2023-01-19T03:41:43.990Z,6.90
2023-01-19T03:44:15.116Z,5.72
2023-01-19T03:46:47.775Z,4.68
2023-01-19T03:49:19.016Z,7.20
2023-01-19T03:51:50.307Z,4.90
2023-01-19T03:54:21.274Z,5.40
2023-01-19T03:56:53.914Z,5.60
2023-01-19T03:59:25.016Z,4.32
2023-01-19T04:01:56.355Z,5.25
2023-01-19T04:04:27.252Z,6.18
2023-01-19T04:06:59.166Z,5.05
2023-01-19T04:09:30.163Z,4.82
2023-01-19T04:12:03.366Z,6.10
2023-01-19T04:14:34.246Z,5.30
2023-01-19T04:17:05.142Z,5.13
2023-01-19T04:19:36.602Z,10.13
2023-01-19T04:22:07.500Z,6.95
2023-01-19T04:24:38.653Z,8.60
2023-01-19T04:27:09.463Z,8.07
2023-01-19T04:32:11.358Z,6.78
2023-01-19T04:34:42.713Z,6.53
2023-01-19T04:37:14.010Z,8.32
2023-01-19T04:39:45.345Z,7.63
2023-01-19T04:42:16.702Z,6.97
2023-01-19T04:44:48.182Z,6.93
2023-01-19T04:49:50.047Z,6.73
2023-01-19T04:52:20.959Z,6.40
2023-01-19T04:54:51.847Z,7.28
2023-01-19T04:57:22.627Z,5.68
2023-01-19T04:59:53.679Z,6.15
2023-01-19T05:02:24.905Z,6.47
2023-01-19T05:04:56.201Z,5.70
2023-01-19T05:07:27.295Z,5.70
2023-01-19T05:09:58.589Z,5.70
2023-01-19T05:12:30.625Z,5.90
2023-01-19T05:15:01.516Z,5.45
2023-01-19T05:17:33.465Z,5.22
2023-01-19T05:20:05.256Z,6.03
2023-01-19T05:22:36.274Z,4.20
2023-01-19T05:25:10.175Z,4.35
2023-01-19T05:27:41.223Z,5.32
2023-01-19T05:30:13.654Z,4.82
2023-01-19T05:32:44.752Z,4.45
2023-01-19T05:35:18.300Z,5.00
2023-01-19T05:37:51.383Z,6.43
2023-01-19T05:40:23.093Z,5.68
2023-01-19T05:42:54.738Z,3.55
2023-01-19T05:45:25.703Z,5.85
2023-01-19T05:47:57.297Z,8.00
2023-01-19T05:50:28.689Z,6.45
2023-01-19T05:53:01.599Z,7.25
2023-01-19T05:55:33.668Z,4.22
2023-01-19T05:58:04.848Z,6.47
2023-01-19T06:00:36.200Z,5.95
2023-01-19T06:03:07.928Z,5.00
2023-01-19T06:05:40.941Z,6.65
2023-01-19T06:08:11.796Z,6.68
2023-01-19T06:10:42.715Z,6.47
2023-01-19T06:13:14.482Z,5.38
2023-01-19T06:15:46.452Z,7.05
2023-01-19T06:20:48.331Z,6.30
2023-01-19T06:25:51.621Z,5.75
2023-01-19T06:28:22.878Z,10.82
2023-01-19T06:30:55.334Z,7.75
2023-01-19T06:33:27.361Z,7.35
2023-01-19T06:35:59.057Z,10.35
2023-01-19T06:38:30.551Z,6.35
2023-01-19T06:41:04.145Z,6.18
2023-01-19T06:43:35.559Z,5.32
2023-01-19T06:46:06.530Z,6.45
2023-01-19T06:48:37.391Z,6.50
2023-01-19T06:51:08.750Z,8.50
2023-01-19T06:53:40.207Z,6.18
2023-01-19T06:56:11.688Z,5.85
2023-01-19T06:58:44.119Z,4.93
2023-01-19T07:01:15.215Z,7.10
2023-01-19T07:03:46.980Z,7.05
2023-01-19T07:06:17.977Z,7.03
2023-01-19T07:08:49.104Z,6.97
2023-01-19T07:11:26.404Z,5.68
2023-01-19T07:14:02.606Z,5.18
2023-01-19T07:16:34.135Z,7.13
2023-01-19T07:21:35.634Z,8.05
2023-01-19T07:26:37.232Z,7.60
2023-01-19T07:29:08.672Z,7.63
2023-01-19T07:31:40.255Z,7.25
2023-01-19T07:36:44.232Z,7.05
2023-01-19T07:39:15.605Z,7.43
2023-01-19T07:41:46.686Z,6.72
2023-01-19T07:44:18.042Z,10.13
2023-01-19T07:49:19.731Z,7.72
2023-01-19T07:51:51.044Z,7.18
2023-01-19T07:56:56.623Z,8.63
2023-01-19T07:59:27.568Z,9.73
2023-01-19T08:02:00.858Z,8.25
2023-01-19T08:04:32.170Z,6.85
2023-01-19T08:09:34.192Z,6.75
2023-01-19T08:14:37.447Z,6.05
2023-01-19T08:17:08.445Z,7.97
2023-01-19T08:19:41.405Z,6.20
2023-01-19T08:22:12.700Z,7.10
2023-01-19T08:24:43.855Z,7.43
2023-01-19T08:27:14.934Z,7.70
2023-01-19T08:29:46.317Z,4.75
2023-01-19T08:32:17.402Z,7.57
2023-01-19T08:34:48.469Z,7.72
2023-01-19T08:37:19.678Z,7.00
2023-01-19T08:39:50.489Z,5.32
2023-01-19T08:42:21.822Z,9.15
2023-01-19T08:44:58.053Z,6.85
2023-01-19T08:47:29.948Z,5.13
2023-01-19T08:50:01.346Z,9.02
2023-01-19T08:52:33.438Z,6.13
2023-01-19T08:55:04.843Z,6.43
2023-01-19T08:57:36.451Z,6.53
2023-01-19T09:02:40.724Z,7.53
2023-01-19T09:05:11.893Z,6.38
2023-01-19T09:07:43.265Z,6.30
2023-01-19T09:10:15.002Z,9.05
2023-01-19T09:12:46.532Z,7.95
2023-01-19T09:15:18.566Z,6.55
2023-01-19T09:17:49.765Z,7.65
2023-01-19T09:20:20.922Z,8.82
2023-01-19T09:22:52.028Z,8.57
2023-01-19T09:25:23.173Z,8.00
2023-01-19T09:27:54.446Z,8.18
2023-01-19T09:30:25.770Z,7.05
2023-01-19T09:32:59.283Z,6.85
2023-01-19T09:35:30.262Z,7.07
2023-01-19T09:38:02.120Z,7.15
2023-01-19T09:40:33.582Z,6.13
2023-01-19T09:43:53.819Z,6.95
2023-01-19T09:46:44.074Z,7.70
2023-01-19T09:49:32.335Z,9.20
2023-01-19T09:52:03.761Z,8.07
2023-01-19T09:54:49.172Z,8.68
2023-01-19T09:57:20.370Z,6.40
2023-01-19T09:59:52.889Z,6.82
2023-01-19T10:03:03.376Z,7.90
2023-01-19T10:05:43.836Z,7.50
2023-01-19T10:08:38.177Z,8.15
2023-01-19T10:11:52.007Z,6.72
2023-01-19T10:14:39.038Z,7.15
2023-01-19T10:17:59.221Z,10.38
2023-01-19T10:20:52.623Z,6.70
2023-01-19T10:23:56.156Z,6.95
2023-01-19T10:26:28.234Z,5.82
2023-01-19T10:29:05.243Z,8.52
2023-01-19T10:31:38.397Z,10.18
2023-01-19T10:34:11.035Z,10.63
2023-01-19T10:36:42.839Z,6.13
2023-01-19T10:39:17.319Z,8.15
2023-01-19T10:41:55.758Z,10.50
2023-01-19T10:44:29.483Z,7.53
2023-01-19T10:47:01.635Z,8.88
2023-01-19T10:49:41.589Z,8.73
2023-01-19T10:52:36.412Z,9.73
2023-01-19T10:55:13.941Z,9.27
2023-01-19T10:57:46.646Z,10.05
2023-01-19T11:00:32.705Z,7.47
2023-01-19T11:03:04.787Z,8.50
2023-01-19T11:05:37.501Z,7.85
2023-01-19T11:08:31.079Z,7.00
2023-01-19T11:11:05.971Z,10.20
2023-01-19T11:13:38.364Z,9.55
2023-01-19T11:16:41.550Z,11.55
2023-01-19T11:19:31.231Z,9.50
2023-01-19T11:22:26.291Z,9.25
2023-01-19T11:25:02.227Z,10.27
2023-01-19T11:27:36.673Z,7.53
2023-01-19T11:30:17.956Z,8.27
2023-01-19T11:32:50.650Z,7.32
2023-01-19T11:35:36.067Z,7.97
2023-01-19T11:38:20.010Z,10.50
2023-01-19T11:40:59.243Z,9.48
2023-01-19T11:43:48.363Z,10.13
2023-01-19T11:46:20.403Z,9.95
2023-01-19T11:49:03.460Z,9.93
2023-01-19T11:51:46.159Z,10.00
2023-01-19T11:54:31.450Z,9.45
2023-01-19T11:57:04.306Z,7.22
2023-01-19T11:59:35.898Z,9.18
2023-01-19T12:02:28.545Z,10.98
2023-01-19T12:05:02.787Z,9.60
2023-01-19T12:07:36.127Z,10.80
2023-01-19T12:10:31.178Z,8.88
2023-01-19T12:13:03.069Z,8.48
2023-01-19T12:15:39.924Z,10.05
2023-01-19T12:18:20.518Z,11.23
2023-01-19T12:20:57.777Z,9.02
2023-01-19T12:23:31.732Z,9.93
2023-01-19T12:26:44.524Z,8.70
2023-01-19T12:29:17.538Z,9.10
2023-01-19T12:31:50.467Z,10.70
2023-01-19T12:34:37.511Z,9.13
2023-01-19T12:37:32.499Z,10.30
2023-01-19T12:40:28.593Z,9.15
2023-01-19T12:43:03.586Z,11.18
2023-01-19T12:45:41.110Z,7.95
2023-01-19T12:48:26.971Z,11.68
2023-01-19T12:50:57.886Z,12.70
2023-01-19T12:53:28.819Z,13.98
2023-01-19T12:56:07.416Z,8.70
2023-01-19T12:58:38.500Z,10.60
2023-01-19T13:01:19.779Z,14.07
2023-01-19T13:04:29.582Z,9.77
2023-01-19T13:07:07.175Z,9.43
2023-01-19T13:09:40.164Z,8.50
2023-01-19T13:12:17.428Z,7.55
2023-01-19T13:14:49.047Z,9.50
2023-01-19T13:17:35.411Z,10.70
2023-01-19T13:20:20.279Z,10.55
2023-01-19T13:22:52.946Z,9.50
2023-01-19T13:25:36.963Z,11.43
2023-01-19T13:28:11.138Z,9.68
2023-01-19T13:30:56.953Z,11.05
2023-01-19T13:33:30.338Z,10.57
2023-01-19T13:36:01.968Z,9.25
2023-01-19T13:38:34.616Z,10.73
2023-01-19T13:41:05.896Z,10.07
2023-01-19T13:43:39.508Z,12.13
2023-01-19T13:46:13.548Z,10.10
2023-01-19T13:48:56.480Z,8.40
2023-01-19T13:51:27.902Z,9.32
2023-01-19T13:54:07.097Z,13.23
2023-01-19T13:56:38.103Z,10.85
2023-01-19T13:59:13.904Z,9.40
2023-01-19T14:01:47.609Z,9.50
2023-01-19T14:04:35.976Z,10.43
2023-01-19T14:07:13.593Z,11.57
2023-01-19T14:09:44.649Z,9.05
2023-01-19T14:12:18.946Z,10.10
2023-01-19T14:14:50.245Z,9.77
2023-01-19T14:19:58.950Z,10.50
2023-01-19T14:22:45.131Z,7.93
2023-01-19T14:25:37.104Z,12.60
2023-01-19T14:28:30.621Z,12.73
2023-01-19T14:31:18.499Z,11.23
2023-01-19T14:33:50.825Z,10.68
2023-01-19T14:36:27.870Z,10.13
2023-01-19T14:39:01.647Z,11.90
2023-01-19T14:41:42.606Z,11.43
2023-01-19T14:44:18.653Z,11.07
2023-01-19T14:46:50.591Z,13.43
2023-01-19T14:49:41.984Z,12.88
2023-01-19T14:52:28.687Z,10.25
2023-01-19T14:55:00.941Z,12.13
2023-01-19T14:57:32.354Z,15.60
2023-01-19T15:00:04.509Z,12.90
2023-01-19T15:02:35.818Z,9.20
2023-01-19T15:05:07.697Z,8.98
2023-01-19T15:10:27.210Z,10.07
2023-01-19T15:12:58.823Z,10.18
2023-01-19T15:15:33.397Z,9.75
2023-01-19T15:18:06.111Z,9.35
2023-01-19T15:20:37.145Z,12.25
2023-01-19T15:23:08.408Z,11.32
2023-01-19T15:25:43.796Z,8.60
2023-01-19T15:28:17.724Z,9.20
2023-01-19T15:30:49.071Z,13.18
2023-01-19T15:33:23.019Z,10.95
2023-01-19T15:35:54.983Z,11.15
2023-01-19T15:38:42.604Z,11.02
2023-01-19T15:41:37.725Z,7.60
2023-01-19T15:44:10.613Z,9.05
2023-01-19T15:46:41.865Z,8.13
2023-01-19T15:49:13.269Z,11.13
2023-01-19T15:51:44.655Z,9.18
2023-01-19T15:54:16.408Z,9.82
2023-01-19T15:56:47.723Z,13.27
2023-01-19T15:59:18.737Z,13.00
2023-01-19T16:01:52.271Z,9.10
2023-01-19T16:04:23.693Z,11.20
2023-01-19T16:06:54.857Z,9.75
2023-01-19T16:09:25.966Z,8.82
2023-01-19T16:11:58.819Z,10.70
2023-01-19T16:14:29.675Z,8.68
2023-01-19T16:17:03.641Z,9.68
2023-01-19T16:19:34.732Z,10.27
2023-01-19T16:22:07.129Z,11.20
2023-01-19T16:24:38.308Z,11.18
2023-01-19T16:27:10.393Z,11.88
2023-01-19T16:29:41.749Z,13.07
2023-01-19T16:32:12.715Z,13.68
2023-01-19T16:34:44.040Z,11.60
2023-01-19T16:37:15.106Z,12.75
2023-01-19T16:39:46.867Z,11.95
2023-01-19T16:42:18.167Z,12.23
2023-01-19T16:44:49.524Z,10.57
2023-01-19T16:47:20.955Z,10.65
2023-01-19T16:49:52.060Z,8.35
2023-01-19T16:52:23.100Z,7.93
2023-01-19T16:54:56.052Z,10.18
2023-01-19T16:57:27.172Z,7.13
2023-01-19T16:59:58.026Z,10.25
2023-01-19T17:02:29.211Z,9.57
2023-01-19T17:05:01.734Z,12.90
2023-01-19T17:07:33.657Z,10.00
2023-01-19T17:12:35.682Z,8.30
2023-01-19T17:15:07.337Z,7.68
2023-01-19T17:20:10.634Z,7.38
2023-01-19T17:22:41.936Z,12.13
2023-01-19T17:25:13.203Z,8.77
2023-01-19T17:30:15.866Z,10.07
2023-01-19T17:32:46.932Z,10.25
2023-01-19T17:35:17.882Z,8.70
2023-01-19T17:37:48.819Z,12.23
2023-01-19T17:40:20.135Z,11.45
2023-01-19T17:42:51.081Z,8.32
2023-01-19T17:45:22.083Z,11.70
2023-01-19T17:47:53.748Z,10.50
2023-01-19T17:50:25.002Z,10.73
2023-01-19T17:52:56.027Z,12.82
2023-01-19T17:55:27.050Z,22.05
2023-01-19T17:57:59.622Z,14.03
2023-01-19T18:00:31.715Z,11.88
2023-01-19T18:03:02.789Z,9.63
2023-01-19T18:05:34.128Z,8.52
2023-01-19T18:08:05.179Z,11.73
2023-01-19T18:10:36.543Z,9.45
2023-01-19T18:13:07.760Z,16.08
2023-01-19T18:15:39.124Z,8.20
2023-01-19T18:18:10.389Z,11.55
2023-01-19T18:20:42.192Z,11.15
2023-01-19T18:23:14.494Z,10.38
2023-01-19T18:25:45.484Z,10.60
2023-01-19T18:28:16.823Z,11.10
2023-01-19T18:30:48.201Z,10.90
2023-01-19T18:33:19.379Z,9.57
2023-01-19T18:35:50.547Z,8.65
2023-01-19T18:38:21.972Z,5.93
2023-01-19T18:41:06.319Z,7.38
2023-01-19T18:43:38.001Z,9.65
2023-01-19T18:46:09.666Z,8.82
2023-01-19T18:48:41.403Z,9.68
2023-01-19T18:51:15.336Z,9.52
2023-01-19T18:53:47.519Z,11.55
2023-01-19T18:56:18.885Z,10.73
2023-01-19T18:58:50.405Z,8.82
2023-01-19T19:01:32.500Z,9.38
2023-01-19T19:04:04.432Z,8.55
2023-01-19T19:06:35.883Z,10.02
2023-01-19T19:09:07.163Z,7.65
2023-01-19T19:11:38.333Z,6.75
2023-01-19T19:14:09.777Z,9.90
2023-01-19T19:16:40.921Z,10.15
2023-01-19T19:19:14.428Z,10.35
2023-01-19T19:21:48.073Z,12.80
2023-01-19T19:24:19.506Z,11.35
2023-01-19T19:26:50.401Z,12.65
2023-01-19T19:29:22.315Z,12.98
2023-01-19T19:31:57.177Z,11.90
2023-01-19T19:34:29.383Z,10.98
2023-01-19T19:37:01.281Z,12.60
2023-01-19T19:39:32.454Z,10.23
2023-01-19T19:42:03.504Z,11.00
2023-01-19T19:44:34.626Z,11.10
2023-01-19T19:47:05.953Z,10.05
2023-01-19T19:49:36.985Z,8.65
2023-01-19T19:52:08.099Z,10.57
2023-01-19T19:54:39.535Z,8.25
2023-01-19T19:57:10.674Z,10.35
2023-01-19T19:59:42.133Z,10.25
2023-01-19T20:02:14.736Z,9.10
2023-01-19T20:04:46.402Z,7.97
2023-01-19T20:07:18.025Z,10.18
2023-01-19T20:09:49.109Z,10.63
2023-01-19T20:12:20.182Z,10.90
2023-01-19T20:14:51.308Z,8.73
2023-01-19T20:17:22.548Z,7.90
2023-01-19T20:19:53.567Z,8.82
2023-01-19T20:22:24.689Z,9.15
2023-01-19T20:24:56.202Z,8.73
2023-01-19T20:27:27.057Z,7.97
2023-01-19T20:35:01.592Z,9.10
2023-01-19T20:37:33.351Z,7.38
2023-01-19T20:40:04.689Z,9.88
2023-01-19T20:42:35.501Z,9.02
2023-01-19T20:45:06.856Z,8.38
2023-01-19T20:50:09.061Z,5.97
2023-01-19T20:52:40.324Z,5.30
2023-01-19T20:55:11.804Z,7.78
2023-01-19T20:57:43.196Z,7.30
2023-01-19T21:00:14.521Z,8.02
2023-01-19T21:02:45.989Z,7.43
2023-01-19T21:05:17.276Z,6.15
2023-01-19T21:07:48.601Z,6.05
2023-01-19T21:10:20.410Z,7.00
2023-01-19T21:12:51.805Z,7.05
2023-01-19T21:15:22.685Z,8.60
2023-01-19T21:17:53.614Z,8.60
2023-01-19T21:20:25.103Z,8.55
2023-01-19T21:22:55.999Z,8.02
2023-01-19T21:25:27.167Z,7.25
2023-01-19T21:27:58.241Z,6.18
2023-01-19T21:33:00.148Z,6.38
2023-01-19T21:35:31.285Z,7.38
2023-01-19T21:38:02.591Z,7.32
2023-01-19T21:40:33.809Z,7.78
2023-01-19T21:43:04.748Z,7.95
2023-01-19T21:48:06.688Z,6.28
2023-01-19T21:50:38.558Z,5.78
2023-01-19T21:53:12.706Z,8.18
2023-01-19T21:55:47.041Z,5.97
2023-01-19T21:58:18.090Z,8.73
2023-01-19T22:00:49.170Z,7.32
2023-01-19T22:03:21.299Z,6.68
2023-01-19T22:05:52.683Z,6.60
2023-01-19T22:08:24.421Z,7.55
2023-01-19T22:10:55.593Z,8.60
2023-01-19T22:13:26.693Z,7.25
2023-01-19T22:16:10.264Z,7.95
2023-01-19T22:18:43.131Z,7.72
2023-01-19T22:21:16.658Z,6.82
2023-01-19T22:23:51.379Z,8.00
2023-01-19T22:26:23.169Z,5.93
2023-01-19T22:28:58.444Z,6.38
2023-01-19T22:31:31.889Z,7.00
2023-01-19T22:34:03.448Z,7.20
2023-01-19T22:36:35.417Z,5.57
2023-01-19T22:39:09.179Z,6.50
2023-01-19T22:41:49.327Z,6.47
2023-01-19T22:44:25.034Z,6.15
2023-01-19T22:46:57.706Z,9.20
2023-01-19T22:49:29.680Z,6.55
2023-01-19T22:52:00.870Z,5.78
2023-01-19T22:54:32.040Z,6.65
2023-01-19T22:59:33.610Z,6.15
2023-01-19T23:02:04.700Z,6.15
2023-01-19T23:04:36.208Z,4.75
2023-01-19T23:09:40.802Z,6.18
2023-01-19T23:12:11.924Z,6.47
2023-01-19T23:14:42.834Z,6.50
2023-01-19T23:17:13.913Z,6.38
2023-01-19T23:19:45.351Z,9.30
2023-01-19T23:22:16.553Z,5.30
2023-01-19T23:24:47.888Z,5.00
2023-01-19T23:27:18.997Z,4.63
2023-01-19T23:32:21.256Z,6.65
2023-01-19T23:34:52.122Z,5.75
2023-01-19T23:37:23.273Z,6.80
2023-01-19T23:39:54.385Z,6.32
2023-01-19T23:44:56.776Z,7.93
2023-01-19T23:47:27.863Z,5.55
2023-01-19T23:49:58.720Z,5.20
2023-01-19T23:52:29.535Z,5.47
2023-01-19T23:55:00.790Z,5.50
2023-01-19T23:57:33.208Z,4.68
